sensor_id;sensor_type;location;lat;lon;timestamp;P1;durP1;ratioP1;P2;durP2;ratioP2
16254;SDS011;8235;52.198;9.904;2023-04-21T00:01:06;26.17;;;19.17;;
16254;SDS011;8235;52.198;9.904;2023-04-21T00:03:37;23.20;;;17.90;;
16254;SDS011;8235;52.198;9.904;2023-04-21T00:06:04;25.10;;;18.13;;
16254;SDS011;8235;52.198;9.904;2023-04-21T00:08:31;28.87;;;19.03;;
16254;SDS011;8235;52.198;9.904;2023-04-21T00:10:58;24.17;;;18.20;;
16254;SDS011;8235;52.198;9.904;2023-04-21T00:13:26;26.83;;;19.73;;
16254;SDS011;8235;52.198;9.904;2023-04-21T00:15:52;26.93;;;18.33;;
16254;SDS011;8235;52.198;9.904;2023-04-21T00:18:18;26.20;;;17.90;;
16254;SDS011;8235;52.198;9.904;2023-04-21T00:20:45;28.37;;;19.80;;
16254;SDS011;8235;52.198;9.904;2023-04-21T00:23:12;32.53;;;21.57;;
16254;SDS011;8235;52.198;9.904;2023-04-21T00:25:38;34.80;;;22.30;;
16254;SDS011;8235;52.198;9.904;2023-04-21T00:28:05;35.17;;;22.83;;
16254;SDS011;8235;52.198;9.904;2023-04-21T00:30:32;37.53;;;23.33;;
16254;SDS011;8235;52.198;9.904;2023-04-21T00:32:59;34.43;;;21.87;;
16254;SDS011;8235;52.198;9.904;2023-04-21T00:35:25;34.20;;;22.87;;
16254;SDS011;8235;52.198;9.904;2023-04-21T00:37:52;37.90;;;23.30;;
16254;SDS011;8235;52.198;9.904;2023-04-21T00:40:18;36.17;;;23.17;;
16254;SDS011;8235;52.198;9.904;2023-04-21T00:42:45;38.90;;;24.03;;
16254;SDS011;8235;52.198;9.904;2023-04-21T00:45:11;34.93;;;23.90;;
16254;SDS011;8235;52.198;9.904;2023-04-21T00:47:40;31.53;;;22.27;;
16254;SDS011;8235;52.198;9.904;2023-04-21T00:50:07;34.93;;;22.90;;
16254;SDS011;8235;52.198;9.904;2023-04-21T00:52:35;33.83;;;22.93;;
16254;SDS011;8235;52.198;9.904;2023-04-21T00:55:04;36.27;;;22.83;;
16254;SDS011;8235;52.198;9.904;2023-04-21T00:57:32;36.50;;;22.43;;
16254;SDS011;8235;52.198;9.904;2023-04-21T01:00:01;30.90;;;21.47;;
16254;SDS011;8235;52.198;9.904;2023-04-21T01:02:29;28.37;;;20.53;;
16254;SDS011;8235;52.198;9.904;2023-04-21T01:04:56;34.27;;;23.00;;
16254;SDS011;8235;52.198;9.904;2023-04-21T01:07:23;34.63;;;22.33;;
16254;SDS011;8235;52.198;9.904;2023-04-21T01:09:50;29.77;;;22.03;;
16254;SDS011;8235;52.198;9.904;2023-04-21T01:12:17;29.10;;;20.30;;
16254;SDS011;8235;52.198;9.904;2023-04-21T01:14:43;32.07;;;21.10;;
16254;SDS011;8235;52.198;9.904;2023-04-21T01:17:10;30.20;;;21.03;;
16254;SDS011;8235;52.198;9.904;2023-04-21T01:19:37;32.00;;;21.93;;
16254;SDS011;8235;52.198;9.904;2023-04-21T01:22:09;31.07;;;21.10;;
16254;SDS011;8235;52.198;9.904;2023-04-21T01:24:37;29.07;;;20.53;;
16254;SDS011;8235;52.198;9.904;2023-04-21T01:27:07;28.70;;;21.43;;
16254;SDS011;8235;52.198;9.904;2023-04-21T01:29:35;28.93;;;21.17;;
16254;SDS011;8235;52.198;9.904;2023-04-21T01:32:05;28.10;;;20.93;;
16254;SDS011;8235;52.198;9.904;2023-04-21T01:34:33;31.87;;;21.37;;
16254;SDS011;8235;52.198;9.904;2023-04-21T01:37:00;26.60;;;20.37;;
16254;SDS011;8235;52.198;9.904;2023-04-21T01:39:29;29.13;;;21.90;;
16254;SDS011;8235;52.198;9.904;2023-04-21T01:41:55;26.93;;;19.80;;
16254;SDS011;8235;52.198;9.904;2023-04-21T01:44:23;27.30;;;19.43;;
16254;SDS011;8235;52.198;9.904;2023-04-21T01:46:50;25.57;;;19.93;;
16254;SDS011;8235;52.198;9.904;2023-04-21T01:49:16;29.27;;;19.33;;
16254;SDS011;8235;52.198;9.904;2023-04-21T01:51:43;24.73;;;19.97;;
16254;SDS011;8235;52.198;9.904;2023-04-21T01:54:10;29.83;;;19.60;;
16254;SDS011;8235;52.198;9.904;2023-04-21T01:56:37;30.70;;;21.07;;
16254;SDS011;8235;52.198;9.904;2023-04-21T01:59:04;25.60;;;20.03;;
16254;SDS011;8235;52.198;9.904;2023-04-21T02:01:30;31.80;;;22.13;;
16254;SDS011;8235;52.198;9.904;2023-04-21T02:03:57;28.27;;;20.50;;
16254;SDS011;8235;52.198;9.904;2023-04-21T02:06:23;32.23;;;21.77;;
16254;SDS011;8235;52.198;9.904;2023-04-21T02:08:50;30.73;;;22.03;;
16254;SDS011;8235;52.198;9.904;2023-04-21T02:11:16;35.33;;;22.57;;
16254;SDS011;8235;52.198;9.904;2023-04-21T02:13:44;31.57;;;22.73;;
16254;SDS011;8235;52.198;9.904;2023-04-21T02:16:10;31.80;;;22.83;;
16254;SDS011;8235;52.198;9.904;2023-04-21T02:18:37;34.07;;;21.67;;
16254;SDS011;8235;52.198;9.904;2023-04-21T02:21:04;33.77;;;22.60;;
16254;SDS011;8235;52.198;9.904;2023-04-21T02:23:31;34.30;;;25.00;;
16254;SDS011;8235;52.198;9.904;2023-04-21T02:25:57;32.87;;;22.60;;
16254;SDS011;8235;52.198;9.904;2023-04-21T02:28:24;34.30;;;23.17;;
16254;SDS011;8235;52.198;9.904;2023-04-21T02:30:52;31.93;;;22.70;;
16254;SDS011;8235;52.198;9.904;2023-04-21T02:33:18;34.27;;;22.47;;
16254;SDS011;8235;52.198;9.904;2023-04-21T02:35:45;31.97;;;22.07;;
16254;SDS011;8235;52.198;9.904;2023-04-21T02:38:11;29.30;;;21.10;;
16254;SDS011;8235;52.198;9.904;2023-04-21T02:40:38;31.27;;;21.07;;
16254;SDS011;8235;52.198;9.904;2023-04-21T02:43:05;30.43;;;21.17;;
16254;SDS011;8235;52.198;9.904;2023-04-21T02:45:31;30.07;;;21.47;;
16254;SDS011;8235;52.198;9.904;2023-04-21T02:47:59;35.07;;;21.67;;
16254;SDS011;8235;52.198;9.904;2023-04-21T02:50:26;33.27;;;22.07;;
16254;SDS011;8235;52.198;9.904;2023-04-21T02:52:52;28.73;;;20.77;;
16254;SDS011;8235;52.198;9.904;2023-04-21T02:55:19;33.53;;;21.37;;
16254;SDS011;8235;52.198;9.904;2023-04-21T02:57:46;29.97;;;21.47;;
16254;SDS011;8235;52.198;9.904;2023-04-21T03:00:13;29.00;;;20.27;;
16254;SDS011;8235;52.198;9.904;2023-04-21T03:02:40;27.20;;;19.87;;
16254;SDS011;8235;52.198;9.904;2023-04-21T03:05:08;32.43;;;20.57;;
16254;SDS011;8235;52.198;9.904;2023-04-21T03:07:35;27.73;;;19.90;;
16254;SDS011;8235;52.198;9.904;2023-04-21T03:10:01;29.57;;;19.70;;
16254;SDS011;8235;52.198;9.904;2023-04-21T03:12:28;26.77;;;18.77;;
16254;SDS011;8235;52.198;9.904;2023-04-21T03:14:54;26.37;;;19.63;;
16254;SDS011;8235;52.198;9.904;2023-04-21T03:17:21;25.27;;;19.43;;
16254;SDS011;8235;52.198;9.904;2023-04-21T03:19:47;27.93;;;19.87;;
16254;SDS011;8235;52.198;9.904;2023-04-21T03:22:15;30.53;;;20.00;;
16254;SDS011;8235;52.198;9.904;2023-04-21T03:24:41;27.47;;;20.17;;
16254;SDS011;8235;52.198;9.904;2023-04-21T03:27:08;27.73;;;20.33;;
16254;SDS011;8235;52.198;9.904;2023-04-21T03:29:34;24.67;;;19.10;;
16254;SDS011;8235;52.198;9.904;2023-04-21T03:32:01;25.90;;;19.37;;
16254;SDS011;8235;52.198;9.904;2023-04-21T03:34:27;27.03;;;19.47;;
16254;SDS011;8235;52.198;9.904;2023-04-21T03:36:54;24.90;;;18.50;;
16254;SDS011;8235;52.198;9.904;2023-04-21T03:39:22;24.93;;;17.80;;
16254;SDS011;8235;52.198;9.904;2023-04-21T03:41:48;25.33;;;17.50;;
16254;SDS011;8235;52.198;9.904;2023-04-21T03:44:15;20.80;;;17.20;;
16254;SDS011;8235;52.198;9.904;2023-04-21T03:46:41;21.37;;;17.33;;
16254;SDS011;8235;52.198;9.904;2023-04-21T03:49:08;23.00;;;17.63;;
16254;SDS011;8235;52.198;9.904;2023-04-21T03:51:34;22.73;;;17.70;;
16254;SDS011;8235;52.198;9.904;2023-04-21T03:54:01;20.43;;;17.17;;
16254;SDS011;8235;52.198;9.904;2023-04-21T03:56:29;20.57;;;16.60;;
16254;SDS011;8235;52.198;9.904;2023-04-21T03:58:55;26.37;;;17.70;;
16254;SDS011;8235;52.198;9.904;2023-04-21T04:01:22;22.87;;;17.27;;
16254;SDS011;8235;52.198;9.904;2023-04-21T04:03:48;22.83;;;17.77;;
16254;SDS011;8235;52.198;9.904;2023-04-21T04:06:14;19.87;;;16.40;;
16254;SDS011;8235;52.198;9.904;2023-04-21T04:08:41;19.23;;;16.13;;
16254;SDS011;8235;52.198;9.904;2023-04-21T04:11:07;22.03;;;16.87;;
16254;SDS011;8235;52.198;9.904;2023-04-21T04:13:35;25.27;;;17.80;;
16254;SDS011;8235;52.198;9.904;2023-04-21T04:16:02;22.70;;;17.97;;
16254;SDS011;8235;52.198;9.904;2023-04-21T04:18:28;26.20;;;19.27;;
16254;SDS011;8235;52.198;9.904;2023-04-21T04:20:54;23.03;;;16.43;;
16254;SDS011;8235;52.198;9.904;2023-04-21T04:23:21;22.03;;;17.23;;
16254;SDS011;8235;52.198;9.904;2023-04-21T04:25:47;22.83;;;18.13;;
16254;SDS011;8235;52.198;9.904;2023-04-21T04:28:15;22.27;;;17.17;;
16254;SDS011;8235;52.198;9.904;2023-04-21T04:30:43;23.63;;;18.67;;
16254;SDS011;8235;52.198;9.904;2023-04-21T04:33:10;28.10;;;18.93;;
16254;SDS011;8235;52.198;9.904;2023-04-21T04:35:36;26.73;;;19.17;;
16254;SDS011;8235;52.198;9.904;2023-04-21T04:38:03;27.10;;;18.63;;
16254;SDS011;8235;52.198;9.904;2023-04-21T04:40:31;24.03;;;18.33;;
16254;SDS011;8235;52.198;9.904;2023-04-21T04:42:58;21.57;;;18.00;;
16254;SDS011;8235;52.198;9.904;2023-04-21T04:45:25;29.33;;;18.53;;
16254;SDS011;8235;52.198;9.904;2023-04-21T04:47:55;27.27;;;18.70;;
16254;SDS011;8235;52.198;9.904;2023-04-21T04:50:21;25.00;;;18.60;;
16254;SDS011;8235;52.198;9.904;2023-04-21T04:52:48;27.27;;;18.07;;
16254;SDS011;8235;52.198;9.904;2023-04-21T04:55:15;23.97;;;19.60;;
16254;SDS011;8235;52.198;9.904;2023-04-21T04:57:42;26.30;;;18.70;;
16254;SDS011;8235;52.198;9.904;2023-04-21T05:00:09;20.50;;;17.83;;
16254;SDS011;8235;52.198;9.904;2023-04-21T05:02:38;24.00;;;19.03;;
16254;SDS011;8235;52.198;9.904;2023-04-21T05:05:06;27.57;;;19.70;;
16254;SDS011;8235;52.198;9.904;2023-04-21T05:07:33;24.70;;;18.03;;
16254;SDS011;8235;52.198;9.904;2023-04-21T05:09:59;25.10;;;19.00;;
16254;SDS011;8235;52.198;9.904;2023-04-21T05:12:28;26.90;;;19.43;;
16254;SDS011;8235;52.198;9.904;2023-04-21T05:14:55;24.27;;;19.60;;
16254;SDS011;8235;52.198;9.904;2023-04-21T05:17:21;27.50;;;20.17;;
16254;SDS011;8235;52.198;9.904;2023-04-21T05:19:48;25.73;;;18.40;;
16254;SDS011;8235;52.198;9.904;2023-04-21T05:22:15;27.33;;;18.43;;
16254;SDS011;8235;52.198;9.904;2023-04-21T05:24:42;23.20;;;17.87;;
16254;SDS011;8235;52.198;9.904;2023-04-21T05:27:08;26.73;;;19.17;;
16254;SDS011;8235;52.198;9.904;2023-04-21T05:29:35;27.47;;;18.50;;
16254;SDS011;8235;52.198;9.904;2023-04-21T05:32:01;23.17;;;18.63;;
16254;SDS011;8235;52.198;9.904;2023-04-21T05:34:28;26.33;;;20.37;;
16254;SDS011;8235;52.198;9.904;2023-04-21T05:36:54;26.13;;;19.07;;
16254;SDS011;8235;52.198;9.904;2023-04-21T05:39:22;28.63;;;18.87;;
16254;SDS011;8235;52.198;9.904;2023-04-21T05:41:48;24.47;;;18.43;;
16254;SDS011;8235;52.198;9.904;2023-04-21T05:44:15;24.47;;;17.73;;
16254;SDS011;8235;52.198;9.904;2023-04-21T05:46:41;23.47;;;17.67;;
16254;SDS011;8235;52.198;9.904;2023-04-21T05:49:08;20.43;;;17.00;;
16254;SDS011;8235;52.198;9.904;2023-04-21T05:51:34;24.93;;;16.47;;
16254;SDS011;8235;52.198;9.904;2023-04-21T05:54:01;20.97;;;15.13;;
16254;SDS011;8235;52.198;9.904;2023-04-21T05:56:28;21.20;;;15.60;;
16254;SDS011;8235;52.198;9.904;2023-04-21T05:58:55;17.40;;;15.37;;
16254;SDS011;8235;52.198;9.904;2023-04-21T06:01:40;18.07;;;15.47;;
16254;SDS011;8235;52.198;9.904;2023-04-21T06:04:07;22.03;;;14.67;;
16254;SDS011;8235;52.198;9.904;2023-04-21T06:06:34;20.63;;;14.50;;
16254;SDS011;8235;52.198;9.904;2023-04-21T06:09:00;20.17;;;15.47;;
16254;SDS011;8235;52.198;9.904;2023-04-21T06:11:28;17.87;;;14.30;;
16254;SDS011;8235;52.198;9.904;2023-04-21T06:13:55;15.23;;;12.57;;
16254;SDS011;8235;52.198;9.904;2023-04-21T06:16:23;20.17;;;13.37;;
16254;SDS011;8235;52.198;9.904;2023-04-21T06:18:50;20.50;;;13.93;;
16254;SDS011;8235;52.198;9.904;2023-04-21T06:21:16;16.90;;;13.10;;
16254;SDS011;8235;52.198;9.904;2023-04-21T06:23:42;17.80;;;13.77;;
16254;SDS011;8235;52.198;9.904;2023-04-21T06:26:09;16.43;;;13.50;;
16254;SDS011;8235;52.198;9.904;2023-04-21T06:28:37;17.63;;;13.37;;
16254;SDS011;8235;52.198;9.904;2023-04-21T06:31:04;18.50;;;13.00;;
16254;SDS011;8235;52.198;9.904;2023-04-21T06:33:31;16.67;;;12.83;;
16254;SDS011;8235;52.198;9.904;2023-04-21T06:35:57;15.30;;;12.40;;
16254;SDS011;8235;52.198;9.904;2023-04-21T06:38:24;20.37;;;12.30;;
16254;SDS011;8235;52.198;9.904;2023-04-21T06:40:50;21.53;;;12.17;;
16254;SDS011;8235;52.198;9.904;2023-04-21T06:43:17;19.03;;;12.70;;
16254;SDS011;8235;52.198;9.904;2023-04-21T06:45:44;16.30;;;12.13;;
16254;SDS011;8235;52.198;9.904;2023-04-21T06:48:11;14.97;;;11.80;;
16254;SDS011;8235;52.198;9.904;2023-04-21T06:50:37;18.80;;;12.27;;
16254;SDS011;8235;52.198;9.904;2023-04-21T06:53:04;18.07;;;11.93;;
16254;SDS011;8235;52.198;9.904;2023-04-21T06:55:30;12.03;;;10.70;;
16254;SDS011;8235;52.198;9.904;2023-04-21T06:57:57;14.50;;;11.40;;
16254;SDS011;8235;52.198;9.904;2023-04-21T07:00:23;19.90;;;12.17;;
16254;SDS011;8235;52.198;9.904;2023-04-21T07:02:51;14.03;;;11.90;;
16254;SDS011;8235;52.198;9.904;2023-04-21T07:05:17;17.10;;;11.70;;
16254;SDS011;8235;52.198;9.904;2023-04-21T07:07:44;12.83;;;10.03;;
16254;SDS011;8235;52.198;9.904;2023-04-21T07:10:10;17.73;;;11.90;;
16254;SDS011;8235;52.198;9.904;2023-04-21T07:12:43;20.10;;;11.53;;
16254;SDS011;8235;52.198;9.904;2023-04-21T07:15:09;15.57;;;11.27;;
16254;SDS011;8235;52.198;9.904;2023-04-21T07:17:36;19.27;;;10.87;;
16254;SDS011;8235;52.198;9.904;2023-04-21T07:20:04;16.73;;;10.50;;
16254;SDS011;8235;52.198;9.904;2023-04-21T07:22:32;14.50;;;10.93;;
16254;SDS011;8235;52.198;9.904;2023-04-21T07:25:00;18.03;;;10.50;;
16254;SDS011;8235;52.198;9.904;2023-04-21T07:27:26;13.20;;;10.13;;
16254;SDS011;8235;52.198;9.904;2023-04-21T07:29:53;17.50;;;8.83;;
16254;SDS011;8235;52.198;9.904;2023-04-21T07:32:19;11.63;;;9.33;;
16254;SDS011;8235;52.198;9.904;2023-04-21T07:34:45;14.67;;;9.30;;
16254;SDS011;8235;52.198;9.904;2023-04-21T07:37:13;14.40;;;9.50;;
16254;SDS011;8235;52.198;9.904;2023-04-21T07:39:41;11.83;;;9.47;;
16254;SDS011;8235;52.198;9.904;2023-04-21T07:42:07;13.93;;;9.27;;
16254;SDS011;8235;52.198;9.904;2023-04-21T07:44:35;12.13;;;9.13;;
16254;SDS011;8235;52.198;9.904;2023-04-21T07:47:01;17.23;;;9.60;;
16254;SDS011;8235;52.198;9.904;2023-04-21T07:49:29;12.67;;;9.53;;
16254;SDS011;8235;52.198;9.904;2023-04-21T07:51:56;12.00;;;8.57;;
16254;SDS011;8235;52.198;9.904;2023-04-21T07:54:23;13.93;;;8.83;;
16254;SDS011;8235;52.198;9.904;2023-04-21T07:56:50;12.83;;;8.17;;
16254;SDS011;8235;52.198;9.904;2023-04-21T07:59:16;14.70;;;8.67;;
16254;SDS011;8235;52.198;9.904;2023-04-21T08:01:43;9.67;;;7.63;;
16254;SDS011;8235;52.198;9.904;2023-04-21T08:04:09;13.37;;;8.93;;
16254;SDS011;8235;52.198;9.904;2023-04-21T08:06:36;9.23;;;7.17;;
16254;SDS011;8235;52.198;9.904;2023-04-21T08:09:02;12.87;;;8.57;;
16254;SDS011;8235;52.198;9.904;2023-04-21T08:11:30;12.33;;;7.60;;
16254;SDS011;8235;52.198;9.904;2023-04-21T08:13:56;12.60;;;7.70;;
16254;SDS011;8235;52.198;9.904;2023-04-21T08:16:23;11.57;;;8.37;;
16254;SDS011;8235;52.198;9.904;2023-04-21T08:18:49;12.47;;;8.47;;
16254;SDS011;8235;52.198;9.904;2023-04-21T08:21:16;17.40;;;8.07;;
16254;SDS011;8235;52.198;9.904;2023-04-21T08:23:42;12.50;;;7.80;;
16254;SDS011;8235;52.198;9.904;2023-04-21T08:26:09;17.73;;;8.80;;
16254;SDS011;8235;52.198;9.904;2023-04-21T08:28:37;11.67;;;7.60;;
16254;SDS011;8235;52.198;9.904;2023-04-21T08:31:03;16.00;;;8.30;;
16254;SDS011;8235;52.198;9.904;2023-04-21T08:33:30;16.87;;;8.33;;
16254;SDS011;8235;52.198;9.904;2023-04-21T08:35:56;12.97;;;7.83;;
16254;SDS011;8235;52.198;9.904;2023-04-21T08:38:23;14.40;;;8.20;;
16254;SDS011;8235;52.198;9.904;2023-04-21T08:40:49;12.93;;;8.90;;
16254;SDS011;8235;52.198;9.904;2023-04-21T08:43:16;12.40;;;7.23;;
16254;SDS011;8235;52.198;9.904;2023-04-21T08:45:43;11.80;;;7.10;;
16254;SDS011;8235;52.198;9.904;2023-04-21T08:48:10;15.17;;;7.33;;
16254;SDS011;8235;52.198;9.904;2023-04-21T08:50:40;11.17;;;6.77;;
16254;SDS011;8235;52.198;9.904;2023-04-21T08:53:09;16.20;;;7.47;;
16254;SDS011;8235;52.198;9.904;2023-04-21T08:55:36;8.17;;;6.53;;
16254;SDS011;8235;52.198;9.904;2023-04-21T08:58:03;9.50;;;6.63;;
16254;SDS011;8235;52.198;9.904;2023-04-21T09:00:30;10.57;;;6.63;;
16254;SDS011;8235;52.198;9.904;2023-04-21T09:02:58;10.87;;;6.57;;
16254;SDS011;8235;52.198;9.904;2023-04-21T09:05:25;9.67;;;6.30;;
16254;SDS011;8235;52.198;9.904;2023-04-21T09:07:53;11.23;;;7.60;;
16254;SDS011;8235;52.198;9.904;2023-04-21T09:10:33;12.43;;;7.33;;
16254;SDS011;8235;52.198;9.904;2023-04-21T09:13:05;9.80;;;7.37;;
16254;SDS011;8235;52.198;9.904;2023-04-21T09:15:36;9.97;;;6.80;;
16254;SDS011;8235;52.198;9.904;2023-04-21T09:18:05;16.33;;;7.17;;
16254;SDS011;8235;52.198;9.904;2023-04-21T09:20:36;12.30;;;7.37;;
16254;SDS011;8235;52.198;9.904;2023-04-21T09:23:03;10.60;;;6.53;;
16254;SDS011;8235;52.198;9.904;2023-04-21T09:25:30;10.70;;;6.63;;
16254;SDS011;8235;52.198;9.904;2023-04-21T09:27:58;13.60;;;7.20;;
16254;SDS011;8235;52.198;9.904;2023-04-21T09:30:25;8.97;;;6.90;;
16254;SDS011;8235;52.198;9.904;2023-04-21T09:32:54;10.30;;;6.63;;
16254;SDS011;8235;52.198;9.904;2023-04-21T09:35:23;12.10;;;7.80;;
16254;SDS011;8235;52.198;9.904;2023-04-21T09:37:52;9.23;;;6.30;;
16254;SDS011;8235;52.198;9.904;2023-04-21T09:40:19;10.53;;;6.20;;
16254;SDS011;8235;52.198;9.904;2023-04-21T09:42:45;8.53;;;6.57;;
16254;SDS011;8235;52.198;9.904;2023-04-21T09:45:13;8.07;;;6.20;;
16254;SDS011;8235;52.198;9.904;2023-04-21T09:47:40;9.00;;;6.00;;
16254;SDS011;8235;52.198;9.904;2023-04-21T09:50:09;9.97;;;6.30;;
16254;SDS011;8235;52.198;9.904;2023-04-21T09:52:38;14.90;;;6.10;;
16254;SDS011;8235;52.198;9.904;2023-04-21T09:55:07;10.13;;;6.47;;
16254;SDS011;8235;52.198;9.904;2023-04-21T09:57:37;10.53;;;6.23;;
16254;SDS011;8235;52.198;9.904;2023-04-21T10:00:04;10.57;;;6.47;;
16254;SDS011;8235;52.198;9.904;2023-04-21T10:02:34;7.93;;;6.00;;
16254;SDS011;8235;52.198;9.904;2023-04-21T10:05:02;10.10;;;6.17;;
16254;SDS011;8235;52.198;9.904;2023-04-21T10:07:30;7.33;;;5.53;;
16254;SDS011;8235;52.198;9.904;2023-04-21T10:09:58;9.10;;;6.00;;
16254;SDS011;8235;52.198;9.904;2023-04-21T10:12:25;8.67;;;5.47;;
16254;SDS011;8235;52.198;9.904;2023-04-21T10:14:53;9.80;;;5.70;;
16254;SDS011;8235;52.198;9.904;2023-04-21T10:17:21;10.23;;;6.00;;
16254;SDS011;8235;52.198;9.904;2023-04-21T10:19:51;11.63;;;5.67;;
16254;SDS011;8235;52.198;9.904;2023-04-21T10:22:27;10.30;;;5.03;;
16254;SDS011;8235;52.198;9.904;2023-04-21T10:24:55;6.67;;;4.83;;
16254;SDS011;8235;52.198;9.904;2023-04-21T10:27:33;11.67;;;5.90;;
16254;SDS011;8235;52.198;9.904;2023-04-21T10:30:01;8.40;;;5.27;;
16254;SDS011;8235;52.198;9.904;2023-04-21T10:32:43;6.17;;;4.93;;
16254;SDS011;8235;52.198;9.904;2023-04-21T10:35:10;10.80;;;5.60;;
16254;SDS011;8235;52.198;9.904;2023-04-21T10:37:39;9.90;;;4.83;;
16254;SDS011;8235;52.198;9.904;2023-04-21T10:40:06;7.13;;;5.20;;
16254;SDS011;8235;52.198;9.904;2023-04-21T10:42:55;7.37;;;5.30;;
16254;SDS011;8235;52.198;9.904;2023-04-21T10:45:23;8.90;;;5.43;;
16254;SDS011;8235;52.198;9.904;2023-04-21T10:47:51;7.00;;;4.90;;
16254;SDS011;8235;52.198;9.904;2023-04-21T10:50:19;9.10;;;5.07;;
16254;SDS011;8235;52.198;9.904;2023-04-21T10:52:51;9.70;;;5.30;;
16254;SDS011;8235;52.198;9.904;2023-04-21T10:55:19;9.87;;;4.73;;
16254;SDS011;8235;52.198;9.904;2023-04-21T10:57:46;9.73;;;5.50;;
16254;SDS011;8235;52.198;9.904;2023-04-21T11:00:16;8.63;;;5.53;;
16254;SDS011;8235;52.198;9.904;2023-04-21T11:02:51;7.73;;;4.70;;
16254;SDS011;8235;52.198;9.904;2023-04-21T11:05:19;9.23;;;4.83;;
16254;SDS011;8235;52.198;9.904;2023-04-21T11:07:45;11.17;;;5.17;;
16254;SDS011;8235;52.198;9.904;2023-04-21T11:10:12;9.93;;;5.03;;
16254;SDS011;8235;52.198;9.904;2023-04-21T11:12:39;7.40;;;4.60;;
16254;SDS011;8235;52.198;9.904;2023-04-21T11:15:06;8.33;;;5.40;;
16254;SDS011;8235;52.198;9.904;2023-04-21T11:17:36;6.93;;;4.80;;
16254;SDS011;8235;52.198;9.904;2023-04-21T11:20:04;6.83;;;5.10;;
16254;SDS011;8235;52.198;9.904;2023-04-21T11:22:31;7.23;;;4.60;;
16254;SDS011;8235;52.198;9.904;2023-04-21T11:24:58;8.17;;;4.83;;
16254;SDS011;8235;52.198;9.904;2023-04-21T11:27:25;6.87;;;4.50;;
16254;SDS011;8235;52.198;9.904;2023-04-21T11:29:53;7.40;;;5.17;;
16254;SDS011;8235;52.198;9.904;2023-04-21T11:32:21;6.53;;;5.33;;
16254;SDS011;8235;52.198;9.904;2023-04-21T11:34:49;9.30;;;4.73;;
16254;SDS011;8235;52.198;9.904;2023-04-21T11:37:20;7.10;;;4.87;;
16254;SDS011;8235;52.198;9.904;2023-04-21T11:39:48;7.57;;;5.23;;
16254;SDS011;8235;52.198;9.904;2023-04-21T11:42:19;5.17;;;4.47;;
16254;SDS011;8235;52.198;9.904;2023-04-21T11:44:46;7.60;;;5.23;;
16254;SDS011;8235;52.198;9.904;2023-04-21T11:47:13;5.73;;;5.03;;
16254;SDS011;8235;52.198;9.904;2023-04-21T11:49:47;5.50;;;4.53;;
16254;SDS011;8235;52.198;9.904;2023-04-21T11:52:19;6.33;;;4.77;;
16254;SDS011;8235;52.198;9.904;2023-04-21T11:54:46;7.83;;;4.10;;
16254;SDS011;8235;52.198;9.904;2023-04-21T11:57:16;11.90;;;5.30;;
16254;SDS011;8235;52.198;9.904;2023-04-21T11:59:44;6.00;;;4.50;;
16254;SDS011;8235;52.198;9.904;2023-04-21T12:02:11;6.20;;;3.80;;
16254;SDS011;8235;52.198;9.904;2023-04-21T12:04:38;8.03;;;4.57;;
16254;SDS011;8235;52.198;9.904;2023-04-21T12:07:06;6.93;;;4.70;;
16254;SDS011;8235;52.198;9.904;2023-04-21T12:09:34;5.47;;;4.30;;
16254;SDS011;8235;52.198;9.904;2023-04-21T12:12:02;7.73;;;4.33;;
16254;SDS011;8235;52.198;9.904;2023-04-21T12:14:30;9.27;;;3.37;;
16254;SDS011;8235;52.198;9.904;2023-04-21T12:16:58;6.97;;;4.00;;
16254;SDS011;8235;52.198;9.904;2023-04-21T12:19:33;7.17;;;3.33;;
16254;SDS011;8235;52.198;9.904;2023-04-21T12:22:00;6.47;;;3.30;;
16254;SDS011;8235;52.198;9.904;2023-04-21T12:24:28;7.03;;;3.13;;
16254;SDS011;8235;52.198;9.904;2023-04-21T12:26:55;6.37;;;3.47;;
16254;SDS011;8235;52.198;9.904;2023-04-21T12:29:21;6.23;;;3.73;;
16254;SDS011;8235;52.198;9.904;2023-04-21T12:31:47;7.90;;;3.70;;
16254;SDS011;8235;52.198;9.904;2023-04-21T12:34:14;8.57;;;3.73;;
16254;SDS011;8235;52.198;9.904;2023-04-21T12:36:40;6.40;;;3.40;;
16254;SDS011;8235;52.198;9.904;2023-04-21T12:39:07;4.47;;;4.00;;
16254;SDS011;8235;52.198;9.904;2023-04-21T12:41:35;5.60;;;3.57;;
16254;SDS011;8235;52.198;9.904;2023-04-21T12:44:02;6.47;;;3.40;;
16254;SDS011;8235;52.198;9.904;2023-04-21T12:46:28;4.37;;;3.60;;
16254;SDS011;8235;52.198;9.904;2023-04-21T12:48:55;6.20;;;3.60;;
16254;SDS011;8235;52.198;9.904;2023-04-21T12:51:21;4.70;;;3.40;;
16254;SDS011;8235;52.198;9.904;2023-04-21T12:53:48;5.47;;;3.30;;
16254;SDS011;8235;52.198;9.904;2023-04-21T12:56:14;3.93;;;2.70;;
16254;SDS011;8235;52.198;9.904;2023-04-21T12:58:42;5.90;;;3.20;;
16254;SDS011;8235;52.198;9.904;2023-04-21T13:01:09;7.27;;;3.83;;
16254;SDS011;8235;52.198;9.904;2023-04-21T13:03:36;5.63;;;3.57;;
16254;SDS011;8235;52.198;9.904;2023-04-21T13:06:02;4.50;;;3.70;;
16254;SDS011;8235;52.198;9.904;2023-04-21T13:08:29;4.97;;;3.50;;
16254;SDS011;8235;52.198;9.904;2023-04-21T13:10:55;4.30;;;3.30;;
16254;SDS011;8235;52.198;9.904;2023-04-21T13:13:22;4.73;;;3.70;;
16254;SDS011;8235;52.198;9.904;2023-04-21T13:15:49;6.40;;;3.50;;
16254;SDS011;8235;52.198;9.904;2023-04-21T13:18:16;4.97;;;3.93;;
16254;SDS011;8235;52.198;9.904;2023-04-21T13:20:42;4.87;;;3.70;;
16254;SDS011;8235;52.198;9.904;2023-04-21T13:23:09;5.90;;;3.83;;
16254;SDS011;8235;52.198;9.904;2023-04-21T13:25:38;6.13;;;4.03;;
16254;SDS011;8235;52.198;9.904;2023-04-21T13:28:04;5.47;;;4.10;;
16254;SDS011;8235;52.198;9.904;2023-04-21T13:30:31;5.00;;;3.47;;
16254;SDS011;8235;52.198;9.904;2023-04-21T13:32:59;6.00;;;4.00;;
16254;SDS011;8235;52.198;9.904;2023-04-21T13:35:26;5.50;;;3.70;;
16254;SDS011;8235;52.198;9.904;2023-04-21T13:37:52;5.83;;;4.00;;
16254;SDS011;8235;52.198;9.904;2023-04-21T13:40:19;5.80;;;3.77;;
16254;SDS011;8235;52.198;9.904;2023-04-21T13:42:45;10.20;;;4.23;;
16254;SDS011;8235;52.198;9.904;2023-04-21T13:45:12;7.03;;;4.37;;
16254;SDS011;8235;52.198;9.904;2023-04-21T13:47:38;5.10;;;3.80;;
16254;SDS011;8235;52.198;9.904;2023-04-21T13:50:07;7.00;;;4.07;;
16254;SDS011;8235;52.198;9.904;2023-04-21T13:52:34;6.47;;;3.70;;
16254;SDS011;8235;52.198;9.904;2023-04-21T13:55:00;6.32;;;3.90;;
16254;SDS011;8235;52.198;9.904;2023-04-21T13:57:29;6.23;;;4.37;;
16254;SDS011;8235;52.198;9.904;2023-04-21T13:59:55;8.33;;;3.87;;
16254;SDS011;8235;52.198;9.904;2023-04-21T14:02:22;6.53;;;3.70;;
16254;SDS011;8235;52.198;9.904;2023-04-21T14:04:49;6.60;;;4.03;;
16254;SDS011;8235;52.198;9.904;2023-04-21T14:07:17;7.43;;;4.17;;
16254;SDS011;8235;52.198;9.904;2023-04-21T14:09:44;5.38;;;4.00;;
16254;SDS011;8235;52.198;9.904;2023-04-21T14:12:11;7.72;;;4.30;;
16254;SDS011;8235;52.198;9.904;2023-04-21T14:14:37;6.97;;;3.80;;
16254;SDS011;8235;52.198;9.904;2023-04-21T14:17:03;5.63;;;3.30;;
16254;SDS011;8235;52.198;9.904;2023-04-21T14:19:30;5.93;;;4.10;;
16254;SDS011;8235;52.198;9.904;2023-04-21T14:21:57;5.53;;;4.23;;
16254;SDS011;8235;52.198;9.904;2023-04-21T14:24:24;6.60;;;4.40;;
16254;SDS011;8235;52.198;9.904;2023-04-21T14:26:54;5.57;;;4.10;;
16254;SDS011;8235;52.198;9.904;2023-04-21T14:29:21;5.45;;;3.83;;
16254;SDS011;8235;52.198;9.904;2023-04-21T14:31:48;6.45;;;4.30;;
16254;SDS011;8235;52.198;9.904;2023-04-21T14:34:16;5.80;;;4.00;;
16254;SDS011;8235;52.198;9.904;2023-04-21T14:36:42;6.93;;;3.97;;
16254;SDS011;8235;52.198;9.904;2023-04-21T14:39:13;5.35;;;3.35;;
16254;SDS011;8235;52.198;9.904;2023-04-21T14:41:41;5.73;;;3.77;;
16254;SDS011;8235;52.198;9.904;2023-04-21T14:44:07;5.47;;;3.40;;
16254;SDS011;8235;52.198;9.904;2023-04-21T14:46:34;4.90;;;3.10;;